sensor_id;sensor_type;location;lat;lon;timestamp;pressure;altitude;pressure_sealevel;temperature;humidity
51759;BME280;66684;47.568;18.734;2023-04-05T00:01:04;99784.34;;;-0.57;74.44
51759;BME280;66684;47.568;18.734;2023-04-05T00:03:32;99783.09;;;-0.51;74.13
51759;BME280;66684;47.568;18.734;2023-04-05T00:05:59;99784.06;;;-0.60;74.45
51759;BME280;66684;47.568;18.734;2023-04-05T00:08:27;99785.59;;;-0.62;74.73
51759;BME280;66684;47.568;18.734;2023-04-05T00:10:53;99783.59;;;-0.56;74.60
51759;BME280;66684;47.568;18.734;2023-04-05T00:13:20;99780.16;;;-0.56;74.60
51759;BME280;66684;47.568;18.734;2023-04-05T00:15:47;99779.47;;;-0.64;75.12
51759;BME280;66684;47.568;18.734;2023-04-05T00:18:14;99781.28;;;-0.63;75.07
51759;BME280;66684;47.568;18.734;2023-04-05T00:20:52;99778.94;;;-0.70;75.66
51759;BME280;66684;47.568;18.734;2023-04-05T00:23:18;99770.44;;;-0.70;75.61
51759;BME280;66684;47.568;18.734;2023-04-05T00:25:46;99772.63;;;-0.75;75.69
51759;BME280;66684;47.568;18.734;2023-04-05T00:28:12;99773.16;;;-0.69;75.60
51759;BME280;66684;47.568;18.734;2023-04-05T00:30:38;99764.50;;;-0.71;75.36
51759;BME280;66684;47.568;18.734;2023-04-05T00:33:05;99772.69;;;-0.84;76.29
51759;BME280;66684;47.568;18.734;2023-04-05T00:35:31;99764.66;;;-0.88;76.41
51759;BME280;66684;47.568;18.734;2023-04-05T00:37:56;99770.06;;;-0.75;75.60
51759;BME280;66684;47.568;18.734;2023-04-05T00:40:23;99762.19;;;-0.78;75.59
51759;BME280;66684;47.568;18.734;2023-04-05T00:42:49;99770.25;;;-0.82;75.71
51759;BME280;66684;47.568;18.734;2023-04-05T00:45:15;99768.50;;;-0.83;75.97
51759;BME280;66684;47.568;18.734;2023-04-05T00:47:41;99763.78;;;-0.89;76.28
51759;BME280;66684;47.568;18.734;2023-04-05T00:50:08;99775.78;;;-0.96;76.63
51759;BME280;66684;47.568;18.734;2023-04-05T00:52:35;99773.75;;;-1.00;76.88
51759;BME280;66684;47.568;18.734;2023-04-05T00:55:06;99779.97;;;-0.97;76.87
51759;BME280;66684;47.568;18.734;2023-04-05T00:57:34;99769.16;;;-1.04;76.96
51759;BME280;66684;47.568;18.734;2023-04-05T01:00:05;99772.44;;;-1.05;76.99
51759;BME280;66684;47.568;18.734;2023-04-05T01:02:40;99765.59;;;-1.06;77.21
51759;BME280;66684;47.568;18.734;2023-04-05T01:08:17;99771.59;;;-1.25;77.85
51759;BME280;66684;47.568;18.734;2023-04-05T01:10:49;99767.94;;;-1.18;77.63
51759;BME280;66684;47.568;18.734;2023-04-05T01:13:16;99763.75;;;-1.18;77.48
51759;BME280;66684;47.568;18.734;2023-04-05T01:15:42;99760.72;;;-1.14;77.33
51759;BME280;66684;47.568;18.734;2023-04-05T01:18:08;99759.22;;;-1.12;76.46
51759;BME280;66684;47.568;18.734;2023-04-05T01:20:40;99756.91;;;-1.19;76.83
51759;BME280;66684;47.568;18.734;2023-04-05T01:26:27;99767.06;;;-1.19;76.69
51759;BME280;66684;47.568;18.734;2023-04-05T01:32:00;99759.63;;;-1.26;76.92
51759;BME280;66684;47.568;18.734;2023-04-05T01:34:55;99760.13;;;-1.30;76.85
51759;BME280;66684;47.568;18.734;2023-04-05T01:37:26;99756.75;;;-1.39;78.01
51759;BME280;66684;47.568;18.734;2023-04-05T01:39:55;99756.22;;;-1.45;78.69
51759;BME280;66684;47.568;18.734;2023-04-05T01:42:23;99753.84;;;-1.62;79.65
51759;BME280;66684;47.568;18.734;2023-04-05T01:44:54;99755.66;;;-1.51;79.22
51759;BME280;66684;47.568;18.734;2023-04-05T01:47:20;99753.97;;;-1.61;79.48
51759;BME280;66684;47.568;18.734;2023-04-05T01:49:46;99757.03;;;-1.74;80.60
51759;BME280;66684;47.568;18.734;2023-04-05T01:52:12;99757.59;;;-1.68;80.98
51759;BME280;66684;47.568;18.734;2023-04-05T01:54:38;99763.66;;;-1.38;79.72
51759;BME280;66684;47.568;18.734;2023-04-05T01:57:04;99762.13;;;-1.55;79.95
51759;BME280;66684;47.568;18.734;2023-04-05T01:59:31;99763.81;;;-1.45;79.66
51759;BME280;66684;47.568;18.734;2023-04-05T02:01:56;99756.75;;;-1.39;80.21
51759;BME280;66684;47.568;18.734;2023-04-05T02:04:22;99765.34;;;-1.47;80.11
51759;BME280;66684;47.568;18.734;2023-04-05T02:06:48;99768.44;;;-1.87;81.67
51759;BME280;66684;47.568;18.734;2023-04-05T02:09:14;99766.63;;;-1.80;81.83
51759;BME280;66684;47.568;18.734;2023-04-05T02:11:40;99763.78;;;-1.83;82.16
51759;BME280;66684;47.568;18.734;2023-04-05T02:14:06;99756.75;;;-1.77;81.85
51759;BME280;66684;47.568;18.734;2023-04-05T02:16:32;99769.25;;;-1.70;81.90
51759;BME280;66684;47.568;18.734;2023-04-05T02:18:58;99755.63;;;-1.61;81.04
51759;BME280;66684;47.568;18.734;2023-04-05T02:21:25;99763.31;;;-1.79;81.71
51759;BME280;66684;47.568;18.734;2023-04-05T02:23:52;99763.31;;;-1.79;81.85
51759;BME280;66684;47.568;18.734;2023-04-05T02:26:18;99759.78;;;-1.81;82.34
51759;BME280;66684;47.568;18.734;2023-04-05T02:28:44;99747.50;;;-1.76;81.74
51759;BME280;66684;47.568;18.734;2023-04-05T02:31:10;99753.19;;;-1.79;81.83
51759;BME280;66684;47.568;18.734;2023-04-05T02:33:38;99748.59;;;-1.83;81.36
51759;BME280;66684;47.568;18.734;2023-04-05T02:36:05;99753.03;;;-1.99;82.34
51759;BME280;66684;47.568;18.734;2023-04-05T02:38:32;99758.34;;;-1.96;82.76
51759;BME280;66684;47.568;18.734;2023-04-05T02:40:58;99752.97;;;-1.91;81.93
51759;BME280;66684;47.568;18.734;2023-04-05T02:43:24;99743.91;;;-1.70;80.83
51759;BME280;66684;47.568;18.734;2023-04-05T02:45:50;99746.75;;;-1.94;81.85
51759;BME280;66684;47.568;18.734;2023-04-05T02:48:16;99750.06;;;-2.04;82.76
51759;BME280;66684;47.568;18.734;2023-04-05T02:50:51;99744.81;;;-2.24;83.34
51759;BME280;66684;47.568;18.734;2023-04-05T02:53:17;99751.19;;;-2.19;82.71
51759;BME280;66684;47.568;18.734;2023-04-05T02:55:54;99739.06;;;-2.32;83.11
51759;BME280;66684;47.568;18.734;2023-04-05T02:58:20;99745.75;;;-2.32;83.68
51759;BME280;66684;47.568;18.734;2023-04-05T03:00:47;99744.31;;;-2.11;83.27
51759;BME280;66684;47.568;18.734;2023-04-05T03:03:17;99741.53;;;-2.23;83.54
51759;BME280;66684;47.568;18.734;2023-04-05T03:05:44;99751.00;;;-2.12;83.13
51759;BME280;66684;47.568;18.734;2023-04-05T03:08:12;99748.63;;;-2.10;83.32
51759;BME280;66684;47.568;18.734;2023-04-05T03:10:45;99752.38;;;-1.88;81.34
51759;BME280;66684;47.568;18.734;2023-04-05T03:13:12;99753.28;;;-1.96;82.21
51759;BME280;66684;47.568;18.734;2023-04-05T03:15:40;99750.19;;;-2.02;82.00
51759;BME280;66684;47.568;18.734;2023-04-05T03:18:06;99750.56;;;-2.17;83.32
51759;BME280;66684;47.568;18.734;2023-04-05T03:20:34;99744.16;;;-2.13;82.69
51759;BME280;66684;47.568;18.734;2023-04-05T03:23:08;99746.22;;;-2.09;82.49
51759;BME280;66684;47.568;18.734;2023-04-05T03:25:35;99745.88;;;-2.03;82.60
51759;BME280;66684;47.568;18.734;2023-04-05T03:28:04;99746.88;;;-1.93;81.58
51759;BME280;66684;47.568;18.734;2023-04-05T03:30:34;99747.16;;;-2.45;84.17
51759;BME280;66684;47.568;18.734;2023-04-05T03:33:01;99744.00;;;-2.14;82.90
51759;BME280;66684;47.568;18.734;2023-04-05T03:35:27;99753.41;;;-2.13;82.55
51759;BME280;66684;47.568;18.734;2023-04-05T03:37:54;99749.81;;;-2.15;83.16
51759;BME280;66684;47.568;18.734;2023-04-05T03:40:21;99755.97;;;-2.22;84.03
51759;BME280;66684;47.568;18.734;2023-04-05T03:42:47;99756.38;;;-2.54;85.50
51759;BME280;66684;47.568;18.734;2023-04-05T03:45:13;99760.59;;;-2.72;86.85
51759;BME280;66684;47.568;18.734;2023-04-05T03:47:39;99765.00;;;-2.52;86.05
51759;BME280;66684;47.568;18.734;2023-04-05T03:50:06;99759.88;;;-2.34;85.25
51759;BME280;66684;47.568;18.734;2023-04-05T03:52:33;99766.56;;;-2.26;84.92
51759;BME280;66684;47.568;18.734;2023-04-05T03:54:59;99763.22;;;-2.17;nan
51759;BME280;66684;47.568;18.734;2023-04-05T03:57:25;99760.31;;;-2.02;83.31
51759;BME280;66684;47.568;18.734;2023-04-05T03:59:53;99764.16;;;-1.97;82.62
51759;BME280;66684;47.568;18.734;2023-04-05T04:02:19;99757.91;;;-2.20;83.42
51759;BME280;66684;47.568;18.734;2023-04-05T04:04:45;99768.38;;;-2.34;83.79
51759;BME280;66684;47.568;18.734;2023-04-05T04:07:12;99768.78;;;-2.57;83.91
51759;BME280;66684;47.568;18.734;2023-04-05T04:09:39;99764.81;;;-2.36;83.58
51759;BME280;66684;47.568;18.734;2023-04-05T04:12:05;99760.94;;;-2.32;83.18
51759;BME280;66684;47.568;18.734;2023-04-05T04:14:33;99767.47;;;-2.34;83.31
51759;BME280;66684;47.568;18.734;2023-04-05T04:16:59;99781.94;;;-2.42;83.50
51759;BME280;66684;47.568;18.734;2023-04-05T04:19:25;99768.38;;;-2.34;83.04
51759;BME280;66684;47.568;18.734;2023-04-05T04:21:51;99776.66;;;-2.18;82.97
51759;BME280;66684;47.568;18.734;2023-04-05T04:24:18;99772.16;;;-2.11;82.08
51759;BME280;66684;47.568;18.734;2023-04-05T04:26:45;99776.91;;;-2.14;82.63
51759;BME280;66684;47.568;18.734;2023-04-05T04:29:11;99776.97;;;-2.68;84.63
51759;BME280;66684;47.568;18.734;2023-04-05T04:31:43;99782.94;;;-2.85;86.95
51759;BME280;66684;47.568;18.734;2023-04-05T04:34:14;99779.97;;;-2.81;86.50
51759;BME280;66684;47.568;18.734;2023-04-05T04:36:43;99781.41;;;-2.65;85.70
51759;BME280;66684;47.568;18.734;2023-04-05T04:39:12;99780.09;;;-2.71;85.57
51759;BME280;66684;47.568;18.734;2023-04-05T04:41:38;99780.84;;;-2.72;85.67
51759;BME280;66684;47.568;18.734;2023-04-05T04:44:09;99786.97;;;-2.69;85.59
51759;BME280;66684;47.568;18.734;2023-04-05T04:46:39;99779.78;;;-2.56;85.47
51759;BME280;66684;47.568;18.734;2023-04-05T04:49:09;99781.91;;;-2.69;86.26
51759;BME280;66684;47.568;18.734;2023-04-05T04:51:38;99789.06;;;-2.83;87.78
51759;BME280;66684;47.568;18.734;2023-04-05T04:54:04;99790.88;;;-2.99;86.95
51759;BME280;66684;47.568;18.734;2023-04-05T04:56:31;99789.38;;;-2.97;87.72
51759;BME280;66684;47.568;18.734;2023-04-05T04:58:56;99790.19;;;-2.71;86.35
51759;BME280;66684;47.568;18.734;2023-04-05T05:01:22;99793.97;;;-2.76;86.55
51759;BME280;66684;47.568;18.734;2023-04-05T05:03:50;99791.34;;;-2.50;85.31
51759;BME280;66684;47.568;18.734;2023-04-05T05:06:17;99795.75;;;-2.30;85.30
51759;BME280;66684;47.568;18.734;2023-04-05T05:08:47;99794.19;;;-2.10;84.77
51759;BME280;66684;47.568;18.734;2023-04-05T05:11:13;99789.34;;;-1.99;83.80
51759;BME280;66684;47.568;18.734;2023-04-05T05:13:39;99800.44;;;-2.15;81.93
51759;BME280;66684;47.568;18.734;2023-04-05T05:16:07;99789.50;;;-1.97;82.46
51759;BME280;66684;47.568;18.734;2023-04-05T05:18:33;99794.66;;;-1.87;81.90
51759;BME280;66684;47.568;18.734;2023-04-05T05:20:59;99786.56;;;-1.83;81.59
51759;BME280;66684;47.568;18.734;2023-04-05T05:23:26;99794.75;;;-1.58;80.06
51759;BME280;66684;47.568;18.734;2023-04-05T05:26:01;99802.44;;;-1.67;78.52
51759;BME280;66684;47.568;18.734;2023-04-05T05:28:27;99797.06;;;-1.88;78.71
51759;BME280;66684;47.568;18.734;2023-04-05T05:30:53;99809.47;;;-2.00;79.29
51759;BME280;66684;47.568;18.734;2023-04-05T05:33:18;99805.25;;;-2.19;79.61
51759;BME280;66684;47.568;18.734;2023-04-05T05:35:49;99806.84;;;-2.10;79.55
51759;BME280;66684;47.568;18.734;2023-04-05T05:38:19;99803.34;;;-2.30;80.64
51759;BME280;66684;47.568;18.734;2023-04-05T05:40:45;99804.13;;;-2.03;79.22
51759;BME280;66684;47.568;18.734;2023-04-05T05:43:11;99804.81;;;-1.96;79.66
51759;BME280;66684;47.568;18.734;2023-04-05T05:45:37;99804.97;;;-1.67;77.94
51759;BME280;66684;47.568;18.734;2023-04-05T05:48:03;99803.84;;;-1.79;78.02
51759;BME280;66684;47.568;18.734;2023-04-05T05:50:29;99802.22;;;-2.14;80.14
51759;BME280;66684;47.568;18.734;2023-04-05T05:52:58;99809.44;;;-1.92;80.28
51759;BME280;66684;47.568;18.734;2023-04-05T05:55:24;99803.47;;;-1.92;79.45
51759;BME280;66684;47.568;18.734;2023-04-05T05:57:50;99809.28;;;-1.66;77.68
51759;BME280;66684;47.568;18.734;2023-04-05T06:00:18;99808.31;;;-1.57;76.95
51759;BME280;66684;47.568;18.734;2023-04-05T06:02:44;99808.19;;;-1.59;77.59
51759;BME280;66684;47.568;18.734;2023-04-05T06:05:11;99810.69;;;-1.78;78.66
51759;BME280;66684;47.568;18.734;2023-04-05T06:07:37;99812.75;;;-1.74;77.48
51759;BME280;66684;47.568;18.734;2023-04-05T06:10:04;99806.38;;;-1.79;78.18
51759;BME280;66684;47.568;18.734;2023-04-05T06:12:31;99810.84;;;-1.57;78.35
51759;BME280;66684;47.568;18.734;2023-04-05T06:14:57;99801.50;;;-1.40;78.16
51759;BME280;66684;47.568;18.734;2023-04-05T06:17:23;99797.59;;;-1.36;78.27
51759;BME280;66684;47.568;18.734;2023-04-05T06:19:49;99811.41;;;-1.51;79.41
51759;BME280;66684;47.568;18.734;2023-04-05T06:22:14;99805.88;;;-1.47;79.09
51759;BME280;66684;47.568;18.734;2023-04-05T06:24:41;99804.13;;;-1.29;78.04
51759;BME280;66684;47.568;18.734;2023-04-05T06:27:07;99809.66;;;-1.15;78.72
51759;BME280;66684;47.568;18.734;2023-04-05T06:29:32;99814.59;;;-1.16;79.59
51759;BME280;66684;47.568;18.734;2023-04-05T06:31:58;99811.28;;;-0.96;79.35
51759;BME280;66684;47.568;18.734;2023-04-05T06:34:24;99803.34;;;-1.10;78.16
51759;BME280;66684;47.568;18.734;2023-04-05T06:36:50;99811.41;;;-0.76;77.66
51759;BME280;66684;47.568;18.734;2023-04-05T06:39:16;99801.56;;;-1.11;78.02
51759;BME280;66684;47.568;18.734;2023-04-05T06:41:42;99810.06;;;-0.91;78.32
51759;BME280;66684;47.568;18.734;2023-04-05T06:44:08;99804.72;;;-0.65;76.18
51759;BME280;66684;47.568;18.734;2023-04-05T06:46:34;99811.50;;;-1.03;76.95
51759;BME280;66684;47.568;18.734;2023-04-05T06:49:00;99813.34;;;-0.73;76.24
51759;BME280;66684;47.568;18.734;2023-04-05T06:51:25;99808.97;;;-0.56;77.90
51759;BME280;66684;47.568;18.734;2023-04-05T06:53:54;99808.34;;;-0.53;76.32
51759;BME280;66684;47.568;18.734;2023-04-05T06:56:20;99808.28;;;-0.34;75.96
51759;BME280;66684;47.568;18.734;2023-04-05T06:58:46;99799.94;;;-0.13;76.47
51759;BME280;66684;47.568;18.734;2023-04-05T07:01:12;99796.41;;;-0.15;75.97
51759;BME280;66684;47.568;18.734;2023-04-05T07:03:38;99804.28;;;-0.12;76.25
51759;BME280;66684;47.568;18.734;2023-04-05T07:06:04;99802.91;;;0.02;73.91
51759;BME280;66684;47.568;18.734;2023-04-05T07:08:31;99796.69;;;0.09;73.43
51759;BME280;66684;47.568;18.734;2023-04-05T07:10:57;99803.56;;;0.30;71.81
51759;BME280;66684;47.568;18.734;2023-04-05T07:13:23;99803.59;;;0.50;72.12
51759;BME280;66684;47.568;18.734;2023-04-05T07:15:50;99799.00;;;0.36;71.28
51759;BME280;66684;47.568;18.734;2023-04-05T07:18:17;99802.19;;;0.44;71.27
51759;BME280;66684;47.568;18.734;2023-04-05T07:20:46;99799.88;;;0.67;70.24
51759;BME280;66684;47.568;18.734;2023-04-05T07:23:12;99807.12;;;0.73;72.00
51759;BME280;66684;47.568;18.734;2023-04-05T07:25:39;99802.06;;;0.52;69.74
51759;BME280;66684;47.568;18.734;2023-04-05T07:28:05;99802.44;;;0.77;68.67
51759;BME280;66684;47.568;18.734;2023-04-05T07:30:31;99803.56;;;0.91;67.08
51759;BME280;66684;47.568;18.734;2023-04-05T07:33:03;99797.47;;;0.79;67.66
51759;BME280;66684;47.568;18.734;2023-04-05T07:35:29;99797.19;;;0.96;65.89
51759;BME280;66684;47.568;18.734;2023-04-05T07:37:55;99798.00;;;1.17;66.99
51759;BME280;66684;47.568;18.734;2023-04-05T07:40:21;99798.31;;;1.42;66.30
51759;BME280;66684;47.568;18.734;2023-04-05T07:42:46;99797.22;;;1.60;64.13
51759;BME280;66684;47.568;18.734;2023-04-05T07:45:12;99788.59;;;1.58;60.69
51759;BME280;66684;47.568;18.734;2023-04-05T07:47:38;99785.75;;;1.66;64.10
51759;BME280;66684;47.568;18.734;2023-04-05T07:50:05;99785.25;;;1.59;63.27
51759;BME280;66684;47.568;18.734;2023-04-05T07:52:31;99792.50;;;1.87;61.37
51759;BME280;66684;47.568;18.734;2023-04-05T07:54:57;99787.25;;;2.07;61.78
51759;BME280;66684;47.568;18.734;2023-04-05T07:57:23;99787.09;;;2.16;62.87
51759;BME280;66684;47.568;18.734;2023-04-05T07:59:49;99787.81;;;2.37;61.75
51759;BME280;66684;47.568;18.734;2023-04-05T08:02:19;99793.03;;;2.05;60.97
51759;BME280;66684;47.568;18.734;2023-04-05T08:04:45;99787.97;;;2.16;56.62
51759;BME280;66684;47.568;18.734;2023-04-05T08:07:11;99788.91;;;2.29;55.20
51759;BME280;66684;47.568;18.734;2023-04-05T08:09:37;99782.09;;;2.17;54.85
51759;BME280;66684;47.568;18.734;2023-04-05T08:12:03;99784.91;;;2.21;58.07
51759;BME280;66684;47.568;18.734;2023-04-05T08:14:29;99787.72;;;2.13;57.54
51759;BME280;66684;47.568;18.734;2023-04-05T08:16:54;99779.37;;;2.38;54.92
51759;BME280;66684;47.568;18.734;2023-04-05T08:19:20;99785.50;;;2.40;58.09
51759;BME280;66684;47.568;18.734;2023-04-05T08:21:46;99782.09;;;2.51;54.57
51759;BME280;66684;47.568;18.734;2023-04-05T08:24:12;99781.00;;;2.59;55.23
51759;BME280;66684;47.568;18.734;2023-04-05T08:26:38;99780.16;;;2.70;54.33
51759;BME280;66684;47.568;18.734;2023-04-05T08:29:06;99773.03;;;2.66;54.53
51759;BME280;66684;47.568;18.734;2023-04-05T08:31:32;99769.50;;;3.00;55.48
51759;BME280;66684;47.568;18.734;2023-04-05T08:33:58;99773.50;;;2.84;54.56
51759;BME280;66684;47.568;18.734;2023-04-05T08:36:24;99773.69;;;2.64;54.25
51759;BME280;66684;47.568;18.734;2023-04-05T08:38:51;99778.72;;;2.86;53.42
51759;BME280;66684;47.568;18.734;2023-04-05T08:41:22;99775.94;;;2.94;55.02
51759;BME280;66684;47.568;18.734;2023-04-05T08:43:55;99784.19;;;3.02;53.43
51759;BME280;66684;47.568;18.734;2023-04-05T08:46:22;99770.72;;;2.93;53.30
51759;BME280;66684;47.568;18.734;2023-04-05T08:48:48;99765.97;;;2.86;54.49
51759;BME280;66684;47.568;18.734;2023-04-05T08:51:21;99771.53;;;3.04;54.02
51759;BME280;66684;47.568;18.734;2023-04-05T08:53:48;99771.06;;;3.09;55.23
51759;BME280;66684;47.568;18.734;2023-04-05T08:56:14;99765.72;;;3.53;52.53
51759;BME280;66684;47.568;18.734;2023-04-05T08:59:11;99763.25;;;3.43;53.60
51759;BME280;66684;47.568;18.734;2023-04-05T09:01:38;99764.53;;;3.73;51.16
51759;BME280;66684;47.568;18.734;2023-04-05T09:04:11;99760.00;;;3.94;52.84
51759;BME280;66684;47.568;18.734;2023-04-05T09:06:39;99755.41;;;3.76;49.47
51759;BME280;66684;47.568;18.734;2023-04-05T09:09:06;99756.41;;;3.18;53.64
51759;BME280;66684;47.568;18.734;2023-04-05T09:11:35;99754.28;;;3.48;52.69
51759;BME280;66684;47.568;18.734;2023-04-05T09:14:03;99759.88;;;3.67;53.30
51759;BME280;66684;47.568;18.734;2023-04-05T09:16:32;99756.56;;;3.57;51.71
51759;BME280;66684;47.568;18.734;2023-04-05T09:18:58;99754.47;;;3.88;50.76
51759;BME280;66684;47.568;18.734;2023-04-05T09:21:26;99755.78;;;3.94;51.84
51759;BME280;66684;47.568;18.734;2023-04-05T09:23:53;99754.66;;;3.77;53.48
51759;BME280;66684;47.568;18.734;2023-04-05T09:26:22;99756.09;;;3.74;50.59
51759;BME280;66684;47.568;18.734;2023-04-05T09:28:49;99751.81;;;3.86;53.86
51759;BME280;66684;47.568;18.734;2023-04-05T09:31:28;99753.09;;;4.29;51.52
51759;BME280;66684;47.568;18.734;2023-04-05T09:34:02;99747.34;;;4.20;50.30
51759;BME280;66684;47.568;18.734;2023-04-05T09:36:29;99745.00;;;4.23;50.67
51759;BME280;66684;47.568;18.734;2023-04-05T09:39:07;99748.91;;;4.18;50.35
51759;BME280;66684;47.568;18.734;2023-04-05T09:41:34;99743.88;;;3.95;50.75
51759;BME280;66684;47.568;18.734;2023-04-05T09:44:01;99744.69;;;3.94;51.45
51759;BME280;66684;47.568;18.734;2023-04-05T09:46:32;99746.56;;;3.96;51.00
51759;BME280;66684;47.568;18.734;2023-04-05T09:48:59;99733.09;;;3.99;50.57
51759;BME280;66684;47.568;18.734;2023-04-05T09:51:36;99735.28;;;4.31;51.02
51759;BME280;66684;47.568;18.734;2023-04-05T09:54:06;99732.19;;;4.10;50.25
51759;BME280;66684;47.568;18.734;2023-04-05T09:56:37;99743.41;;;4.25;49.79
51759;BME280;66684;47.568;18.734;2023-04-05T09:59:09;99731.69;;;4.41;50.87
51759;BME280;66684;47.568;18.734;2023-04-05T10:01:36;99739.81;;;4.73;48.73
51759;BME280;66684;47.568;18.734;2023-04-05T10:04:02;99741.09;;;4.28;48.15
51759;BME280;66684;47.568;18.734;2023-04-05T10:06:39;99728.06;;;4.25;49.68
51759;BME280;66684;47.568;18.734;2023-04-05T10:09:07;99717.28;;;4.04;49.99
51759;BME280;66684;47.568;18.734;2023-04-05T10:11:33;99729.34;;;4.70;52.60
51759;BME280;66684;47.568;18.734;2023-04-05T10:14:02;99724.66;;;5.03;48.59
51759;BME280;66684;47.568;18.734;2023-04-05T10:16:31;99719.25;;;4.85;48.42
51759;BME280;66684;47.568;18.734;2023-04-05T10:18:58;99709.78;;;4.84;49.08
51759;BME280;66684;47.568;18.734;2023-04-05T10:21:29;99715.19;;;5.02;48.63
51759;BME280;66684;47.568;18.734;2023-04-05T10:26:59;99715.66;;;4.96;48.42
51759;BME280;66684;47.568;18.734;2023-04-05T10:29:31;99717.16;;;4.79;47.02
51759;BME280;66684;47.568;18.734;2023-04-05T10:32:10;99710.28;;;4.65;47.22
51759;BME280;66684;47.568;18.734;2023-04-05T10:34:44;99701.56;;;4.37;46.77
51759;BME280;66684;47.568;18.734;2023-04-05T10:37:26;99697.66;;;4.81;45.86
51759;BME280;66684;47.568;18.734;2023-04-05T10:39:59;99694.44;;;5.38;46.11
51759;BME280;66684;47.568;18.734;2023-04-05T10:42:35;99705.91;;;5.30;47.47
51759;BME280;66684;47.568;18.734;2023-04-05T10:45:05;99702.31;;;5.55;45.80
51759;BME280;66684;47.568;18.734;2023-04-05T10:47:40;99697.34;;;5.58;45.39
51759;BME280;66684;47.568;18.734;2023-04-05T10:50:07;99693.56;;;5.79;46.86
51759;BME280;66684;47.568;18.734;2023-04-05T10:52:35;99693.28;;;5.75;44.83
51759;BME280;66684;47.568;18.734;2023-04-05T10:55:01;99692.81;;;5.67;44.99
51759;BME280;66684;47.568;18.734;2023-04-05T10:57:28;99689.91;;;5.48;45.37
51759;BME280;66684;47.568;18.734;2023-04-05T10:59:55;99684.12;;;5.65;43.96
51759;BME280;66684;47.568;18.734;2023-04-05T11:02:21;99680.44;;;6.03;45.53
51759;BME280;66684;47.568;18.734;2023-04-05T11:04:52;99682.47;;;5.93;45.12
51759;BME280;66684;47.568;18.734;2023-04-05T11:07:21;99676.91;;;5.45;42.80
51759;BME280;66684;47.568;18.734;2023-04-05T11:10:03;99673.66;;;5.90;44.41
51759;BME280;66684;47.568;18.734;2023-04-05T11:18:10;99666.88;;;6.18;40.41
51759;BME280;66684;47.568;18.734;2023-04-05T11:20:52;99666.50;;;5.84;39.52
51759;BME280;66684;47.568;18.734;2023-04-05T11:23:23;99657.87;;;5.69;41.00
51759;BME280;66684;47.568;18.734;2023-04-05T11:25:54;99674.44;;;5.74;43.19
51759;BME280;66684;47.568;18.734;2023-04-05T11:28:33;99670.47;;;5.92;40.98
51759;BME280;66684;47.568;18.734;2023-04-05T11:31:13;99669.94;;;6.13;41.84
51759;BME280;66684;47.568;18.734;2023-04-05T11:41:59;99649.06;;;7.28;37.76
51759;BME280;66684;47.568;18.734;2023-04-05T11:44:48;99648.13;;;7.58;39.37
51759;BME280;66684;47.568;18.734;2023-04-05T11:47:17;99650.37;;;7.52;41.97
51759;BME280;66684;47.568;18.734;2023-04-05T11:49:49;99634.47;;;7.76;38.96
51759;BME280;66684;47.568;18.734;2023-04-05T11:52:19;99644.59;;;7.73;39.08
51759;BME280;66684;47.568;18.734;2023-04-05T11:54:45;99645.06;;;6.71;40.19
51759;BME280;66684;47.568;18.734;2023-04-05T11:57:13;99642.50;;;6.71;38.34
51759;BME280;66684;47.568;18.734;2023-04-05T11:59:41;99638.94;;;7.15;39.05
51759;BME280;66684;47.568;18.734;2023-04-05T12:02:06;99632.09;;;6.99;38.59
51759;BME280;66684;47.568;18.734;2023-04-05T12:04:34;99636.03;;;7.09;36.96
51759;BME280;66684;47.568;18.734;2023-04-05T12:09:33;99626.59;;;7.40;36.74
51759;BME280;66684;47.568;18.734;2023-04-05T12:11:59;99619.72;;;6.31;39.44
51759;BME280;66684;47.568;18.734;2023-04-05T12:14:24;99623.38;;;6.66;39.93
51759;BME280;66684;47.568;18.734;2023-04-05T12:16:50;99622.72;;;7.16;40.50
51759;BME280;66684;47.568;18.734;2023-04-05T12:19:17;99616.78;;;7.33;37.80
51759;BME280;66684;47.568;18.734;2023-04-05T12:21:43;99618.28;;;7.61;37.53
51759;BME280;66684;47.568;18.734;2023-04-05T12:24:09;99616.56;;;7.45;36.14
51759;BME280;66684;47.568;18.734;2023-04-05T12:26:35;99614.41;;;7.69;36.61
51759;BME280;66684;47.568;18.734;2023-04-05T12:29:03;99605.00;;;8.03;37.04
51759;BME280;66684;47.568;18.734;2023-04-05T12:31:39;99612.47;;;7.81;38.06
51759;BME280;66684;47.568;18.734;2023-04-05T12:34:06;99606.94;;;7.57;37.36
51759;BME280;66684;47.568;18.734;2023-04-05T12:36:32;99602.19;;;7.32;36.10
51759;BME280;66684;47.568;18.734;2023-04-05T12:38:59;99605.31;;;7.26;35.00
51759;BME280;66684;47.568;18.734;2023-04-05T12:41:29;99606.44;;;7.80;35.37
51759;BME280;66684;47.568;18.734;2023-04-05T12:43:55;99601.09;;;8.28;36.18
51759;BME280;66684;47.568;18.734;2023-04-05T12:47:01;99589.13;;;7.94;36.69
51759;BME280;66684;47.568;18.734;2023-04-05T12:49:28;99599.09;;;8.38;35.29
51759;BME280;66684;47.568;18.734;2023-04-05T12:52:00;99595.00;;;8.26;34.60
51759;BME280;66684;47.568;18.734;2023-04-05T12:54:27;99584.59;;;8.06;35.22
51759;BME280;66684;47.568;18.734;2023-04-05T12:56:53;99590.41;;;8.54;35.78
51759;BME280;66684;47.568;18.734;2023-04-05T12:59:20;99588.56;;;8.00;34.49
51759;BME280;66684;47.568;18.734;2023-04-05T13:01:47;99584.00;;;8.46;36.14
51759;BME280;66684;47.568;18.734;2023-04-05T13:04:12;99588.03;;;8.41;35.16
51759;BME280;66684;47.568;18.734;2023-04-05T13:06:39;99582.37;;;8.84;36.09
51759;BME280;66684;47.568;18.734;2023-04-05T13:09:04;99587.69;;;8.51;34.43
51759;BME280;66684;47.568;18.734;2023-04-05T13:11:30;99573.47;;;8.59;35.16
51759;BME280;66684;47.568;18.734;2023-04-05T13:13:56;99577.91;;;8.44;34.74
51759;BME280;66684;47.568;18.734;2023-04-05T13:16:22;99578.56;;;8.40;31.74
51759;BME280;66684;47.568;18.734;2023-04-05T13:18:48;99571.53;;;8.20;31.69
51759;BME280;66684;47.568;18.734;2023-04-05T13:21:14;99571.63;;;7.87;31.49
51759;BME280;66684;47.568;18.734;2023-04-05T13:23:40;99579.31;;;8.21;32.66
51759;BME280;66684;47.568;18.734;2023-04-05T13:26:07;99574.16;;;8.21;31.59
51759;BME280;66684;47.568;18.734;2023-04-05T13:28:33;99563.47;;;8.30;30.67